Warning: Javascript must be enabled to use all the features on this page!


Page Loading - Please Wait...

Click to hideNews Bulletins

Peak Streamflow for the Nation

USGS 02087324 CRABTREE CREEK AT US 1 AT RALEIGH, NC

Wake County, North Carolina
Hydrologic Unit Code 03020201
Latitude  35°48'40", Longitude  78°36'39" NAD83
Drainage area 121  square miles
Gage datum 182.36 feet above NAVD88
Output formats
Table
Graph
Tab-separated file
peakfq (watstore) format
Reselect output format
Water
Year
Date Gage
Height
(feet)
Stream-
flow
(cfs)
1973 1973-06-29 17.98 13,5007
1991 1991-01-12 10.66 2,450C
1992 1992-06-26 11.02 2,610C
1993 1993-03-04 12.40 3,330C
1994 1994-03-02 11.01 2,600C
1995 1995-08-28 12.99 3,670C
1996 1996-09-06 18.23 12,700C
1997 1997-07-24 13.14 3,500C
1998 1998-03-19 14.08 4,230C
1999 1999-09-16 16.886 8,050C
2000 2000-09-04 11.15 2,390C
2001 2001-07-27 10.37 2,480C
2002 2002-04-01 10.47 2,460C
2003 2002-10-11 14.59 5,040C
2004 2004-08-13 10.90 2,730C
2005 2005-06-07 9.18 1,830C
2006 2006-06-14 16.93 8,150C
2007 2006-11-22 12.18 3,490C
2008 2008-09-06 13.54 4,240C
2010 2009-12-03 12.23 3,370C
2011 2011-08-06 12.17 3,350C
2012 2012-09-06 10.09 2,470C
2013 2013-06-08 14.40 4,770C
2014 2014-05-16 12.89 3,710C
2015 2014-12-24 11.70 3,130C
2016 2016-07-17 15.24 5,510C
2017 2016-10-08 17.49 9,650C
2018 2018-08-20 13.42 4,030C
2019 2018-11-13 13.77 4,280C
2020 2020-09-01 13.85 4,340C
2021 2020-11-12 12.67 3,590C
?
  Peak Gage-Height Qualification Codes.
?
  Peak Streamflow Qualification Codes.